sensor_id;sensor_type;location;lat;lon;timestamp;temperature;humidity
12166;DHT22;6146;48.128;11.476;2023-05-17T00:00:09;9.00;99.90
12166;DHT22;6146;48.128;11.476;2023-05-17T00:02:36;9.00;99.90
12166;DHT22;6146;48.128;11.476;2023-05-17T00:05:02;9.00;99.90
12166;DHT22;6146;48.128;11.476;2023-05-17T00:07:27;9.00;99.90
12166;DHT22;6146;48.128;11.476;2023-05-17T00:09:53;9.00;99.90
12166;DHT22;6146;48.128;11.476;2023-05-17T00:12:18;9.00;99.90
12166;DHT22;6146;48.128;11.476;2023-05-17T00:14:44;9.00;99.90
12166;DHT22;6146;48.128;11.476;2023-05-17T00:17:10;8.90;99.90
12166;DHT22;6146;48.128;11.476;2023-05-17T00:19:35;9.00;99.90
12166;DHT22;6146;48.128;11.476;2023-05-17T00:22:01;9.00;99.90
12166;DHT22;6146;48.128;11.476;2023-05-17T00:24:26;9.00;99.90
12166;DHT22;6146;48.128;11.476;2023-05-17T00:26:52;9.00;99.90
12166;DHT22;6146;48.128;11.476;2023-05-17T00:29:17;9.00;99.90
12166;DHT22;6146;48.128;11.476;2023-05-17T00:31:43;9.00;99.90
12166;DHT22;6146;48.128;11.476;2023-05-17T00:34:08;8.90;99.90
12166;DHT22;6146;48.128;11.476;2023-05-17T00:36:34;9.00;99.90
12166;DHT22;6146;48.128;11.476;2023-05-17T00:38:59;8.90;99.90
12166;DHT22;6146;48.128;11.476;2023-05-17T00:41:25;8.90;99.90
12166;DHT22;6146;48.128;11.476;2023-05-17T00:43:50;8.90;99.90
12166;DHT22;6146;48.128;11.476;2023-05-17T00:46:16;8.90;99.90
12166;DHT22;6146;48.128;11.476;2023-05-17T00:48:42;8.90;99.90
12166;DHT22;6146;48.128;11.476;2023-05-17T00:51:08;8.90;99.90
12166;DHT22;6146;48.128;11.476;2023-05-17T00:53:34;8.80;99.90
12166;DHT22;6146;48.128;11.476;2023-05-17T00:56:01;8.90;99.90
12166;DHT22;6146;48.128;11.476;2023-05-17T00:58:27;8.80;99.90
12166;DHT22;6146;48.128;11.476;2023-05-17T01:00:53;8.80;99.90
12166;DHT22;6146;48.128;11.476;2023-05-17T01:03:18;8.80;99.90
12166;DHT22;6146;48.128;11.476;2023-05-17T01:05:47;8.80;99.90
12166;DHT22;6146;48.128;11.476;2023-05-17T01:08:13;8.00;99.90
12166;DHT22;6146;48.128;11.476;2023-05-17T01:16:15;8.70;99.90
12166;DHT22;6146;48.128;11.476;2023-05-17T01:18:50;8.70;99.90
12166;DHT22;6146;48.128;11.476;2023-05-17T01:24:24;8.70;99.90
12166;DHT22;6146;48.128;11.476;2023-05-17T01:26:52;8.70;99.90
12166;DHT22;6146;48.128;11.476;2023-05-17T01:29:23;8.70;99.90
12166;DHT22;6146;48.128;11.476;2023-05-17T01:31:50;8.60;99.90
12166;DHT22;6146;48.128;11.476;2023-05-17T01:34:27;8.60;99.90
12166;DHT22;6146;48.128;11.476;2023-05-17T01:36:53;8.60;99.90
12166;DHT22;6146;48.128;11.476;2023-05-17T01:39:19;8.50;99.90
12166;DHT22;6146;48.128;11.476;2023-05-17T01:42:00;8.50;99.90
12166;DHT22;6146;48.128;11.476;2023-05-17T01:47:04;8.50;99.90
12166;DHT22;6146;48.128;11.476;2023-05-17T01:49:37;8.50;99.90
12166;DHT22;6146;48.128;11.476;2023-05-17T01:52:18;8.50;99.90
12166;DHT22;6146;48.128;11.476;2023-05-17T01:57:27;8.60;99.90
12166;DHT22;6146;48.128;11.476;2023-05-17T01:59:54;8.50;99.90
12166;DHT22;6146;48.128;11.476;2023-05-17T02:02:23;8.50;99.90
12166;DHT22;6146;48.128;11.476;2023-05-17T02:04:49;8.50;99.90
12166;DHT22;6146;48.128;11.476;2023-05-17T02:07:15;8.50;99.90
12166;DHT22;6146;48.128;11.476;2023-05-17T02:09:41;8.50;99.90
12166;DHT22;6146;48.128;11.476;2023-05-17T02:12:07;8.40;99.90
12166;DHT22;6146;48.128;11.476;2023-05-17T02:14:32;8.40;99.90
12166;DHT22;6146;48.128;11.476;2023-05-17T02:16:58;8.40;99.90
12166;DHT22;6146;48.128;11.476;2023-05-17T02:19:23;8.40;99.90
12166;DHT22;6146;48.128;11.476;2023-05-17T02:21:49;8.40;99.90
12166;DHT22;6146;48.128;11.476;2023-05-17T02:24:14;8.40;99.90
12166;DHT22;6146;48.128;11.476;2023-05-17T02:26:40;8.30;99.90
12166;DHT22;6146;48.128;11.476;2023-05-17T02:29:08;8.30;99.90
12166;DHT22;6146;48.128;11.476;2023-05-17T02:31:35;8.30;99.90
12166;DHT22;6146;48.128;11.476;2023-05-17T02:34:00;8.30;99.90
12166;DHT22;6146;48.128;11.476;2023-05-17T02:36:26;8.30;99.90
12166;DHT22;6146;48.128;11.476;2023-05-17T02:38:52;8.30;99.90
12166;DHT22;6146;48.128;11.476;2023-05-17T02:41:17;8.30;99.90
12166;DHT22;6146;48.128;11.476;2023-05-17T02:43:43;8.30;99.90
12166;DHT22;6146;48.128;11.476;2023-05-17T02:46:08;8.30;99.90
12166;DHT22;6146;48.128;11.476;2023-05-17T02:48:34;8.20;99.90
12166;DHT22;6146;48.128;11.476;2023-05-17T02:51:00;8.30;99.90
12166;DHT22;6146;48.128;11.476;2023-05-17T02:53:25;8.30;99.90
12166;DHT22;6146;48.128;11.476;2023-05-17T02:55:51;8.20;99.90
12166;DHT22;6146;48.128;11.476;2023-05-17T02:58:16;8.20;99.90
12166;DHT22;6146;48.128;11.476;2023-05-17T03:00:45;8.20;99.90
12166;DHT22;6146;48.128;11.476;2023-05-17T03:03:11;8.20;99.90
12166;DHT22;6146;48.128;11.476;2023-05-17T03:05:36;8.20;99.90
12166;DHT22;6146;48.128;11.476;2023-05-17T03:08:02;8.20;99.90
12166;DHT22;6146;48.128;11.476;2023-05-17T03:10:27;8.20;99.90
12166;DHT22;6146;48.128;11.476;2023-05-17T03:12:53;8.10;99.90
12166;DHT22;6146;48.128;11.476;2023-05-17T03:15:18;8.20;99.90
12166;DHT22;6146;48.128;11.476;2023-05-17T03:17:44;8.10;99.90
12166;DHT22;6146;48.128;11.476;2023-05-17T03:20:10;8.10;99.90
12166;DHT22;6146;48.128;11.476;2023-05-17T03:22:35;8.10;99.90
12166;DHT22;6146;48.128;11.476;2023-05-17T03:25:01;8.10;99.90
12166;DHT22;6146;48.128;11.476;2023-05-17T03:27:27;8.10;99.90
12166;DHT22;6146;48.128;11.476;2023-05-17T03:29:52;8.10;99.90
12166;DHT22;6146;48.128;11.476;2023-05-17T03:32:18;8.00;99.90
12166;DHT22;6146;48.128;11.476;2023-05-17T03:34:43;8.00;99.90
12166;DHT22;6146;48.128;11.476;2023-05-17T03:37:09;8.10;99.90
12166;DHT22;6146;48.128;11.476;2023-05-17T03:39:34;8.10;99.90
12166;DHT22;6146;48.128;11.476;2023-05-17T03:42:00;8.10;99.90
12166;DHT22;6146;48.128;11.476;2023-05-17T03:44:26;8.10;99.90
12166;DHT22;6146;48.128;11.476;2023-05-17T03:46:52;8.10;99.90
12166;DHT22;6146;48.128;11.476;2023-05-17T03:49:17;8.10;99.90
12166;DHT22;6146;48.128;11.476;2023-05-17T03:51:43;8.10;99.90
12166;DHT22;6146;48.128;11.476;2023-05-17T03:54:09;8.10;99.90
12166;DHT22;6146;48.128;11.476;2023-05-17T03:56:35;8.10;99.90
12166;DHT22;6146;48.128;11.476;2023-05-17T03:59:00;8.10;99.90
12166;DHT22;6146;48.128;11.476;2023-05-17T04:01:26;8.10;99.90
12166;DHT22;6146;48.128;11.476;2023-05-17T04:03:52;8.20;99.90
12166;DHT22;6146;48.128;11.476;2023-05-17T04:06:17;8.20;99.90
12166;DHT22;6146;48.128;11.476;2023-05-17T04:08:43;8.20;99.90
12166;DHT22;6146;48.128;11.476;2023-05-17T04:11:08;8.20;99.90
12166;DHT22;6146;48.128;11.476;2023-05-17T04:13:35;8.20;99.90
12166;DHT22;6146;48.128;11.476;2023-05-17T04:16:04;8.20;99.90
12166;DHT22;6146;48.128;11.476;2023-05-17T04:18:31;8.30;99.90
12166;DHT22;6146;48.128;11.476;2023-05-17T04:20:57;8.40;99.90
12166;DHT22;6146;48.128;11.476;2023-05-17T04:23:22;8.40;99.90
12166;DHT22;6146;48.128;11.476;2023-05-17T04:25:48;8.50;99.90
12166;DHT22;6146;48.128;11.476;2023-05-17T04:28:13;8.40;99.90
12166;DHT22;6146;48.128;11.476;2023-05-17T04:30:42;8.50;99.90
12166;DHT22;6146;48.128;11.476;2023-05-17T04:33:08;8.50;99.90
12166;DHT22;6146;48.128;11.476;2023-05-17T04:35:34;8.40;99.90
12166;DHT22;6146;48.128;11.476;2023-05-17T04:38:00;8.50;99.90
12166;DHT22;6146;48.128;11.476;2023-05-17T04:40:26;8.50;99.90
12166;DHT22;6146;48.128;11.476;2023-05-17T04:42:51;8.40;99.90
12166;DHT22;6146;48.128;11.476;2023-05-17T04:45:17;8.50;99.90
12166;DHT22;6146;48.128;11.476;2023-05-17T04:47:42;8.50;99.90
12166;DHT22;6146;48.128;11.476;2023-05-17T04:50:08;8.50;99.90
12166;DHT22;6146;48.128;11.476;2023-05-17T04:52:34;8.50;99.90
12166;DHT22;6146;48.128;11.476;2023-05-17T04:54:59;8.50;99.90
12166;DHT22;6146;48.128;11.476;2023-05-17T04:57:25;8.60;99.90
12166;DHT22;6146;48.128;11.476;2023-05-17T04:59:50;8.70;99.90
12166;DHT22;6146;48.128;11.476;2023-05-17T05:02:16;8.80;99.90
12166;DHT22;6146;48.128;11.476;2023-05-17T05:04:41;8.80;99.90
12166;DHT22;6146;48.128;11.476;2023-05-17T05:07:07;8.80;99.90
12166;DHT22;6146;48.128;11.476;2023-05-17T05:09:33;8.90;99.90
12166;DHT22;6146;48.128;11.476;2023-05-17T05:11:58;9.10;99.90
12166;DHT22;6146;48.128;11.476;2023-05-17T05:14:24;9.20;99.90
12166;DHT22;6146;48.128;11.476;2023-05-17T05:16:49;9.40;99.90
12166;DHT22;6146;48.128;11.476;2023-05-17T05:19:15;9.60;99.90
12166;DHT22;6146;48.128;11.476;2023-05-17T05:21:44;9.90;99.90
12166;DHT22;6146;48.128;11.476;2023-05-17T05:24:10;10.30;99.90
12166;DHT22;6146;48.128;11.476;2023-05-17T05:26:35;10.60;99.90
12166;DHT22;6146;48.128;11.476;2023-05-17T05:29:01;10.90;99.90
12166;DHT22;6146;48.128;11.476;2023-05-17T05:31:27;11.20;99.90
12166;DHT22;6146;48.128;11.476;2023-05-17T05:33:52;11.60;99.90
12166;DHT22;6146;48.128;11.476;2023-05-17T05:36:18;11.80;99.90
12166;DHT22;6146;48.128;11.476;2023-05-17T05:38:43;12.20;99.90
12166;DHT22;6146;48.128;11.476;2023-05-17T05:41:09;12.40;99.90
12166;DHT22;6146;48.128;11.476;2023-05-17T05:43:35;12.60;99.90
12166;DHT22;6146;48.128;11.476;2023-05-17T05:46:02;12.80;99.90
12166;DHT22;6146;48.128;11.476;2023-05-17T05:48:27;13.00;99.90
12166;DHT22;6146;48.128;11.476;2023-05-17T05:50:53;13.30;99.90
12166;DHT22;6146;48.128;11.476;2023-05-17T05:53:18;13.40;99.90
12166;DHT22;6146;48.128;11.476;2023-05-17T05:55:44;13.50;99.90
12166;DHT22;6146;48.128;11.476;2023-05-17T05:58:09;13.70;99.90
12166;DHT22;6146;48.128;11.476;2023-05-17T06:00:35;14.00;99.90
12166;DHT22;6146;48.128;11.476;2023-05-17T06:03:01;14.40;99.90
12166;DHT22;6146;48.128;11.476;2023-05-17T06:05:27;14.90;99.90
12166;DHT22;6146;48.128;11.476;2023-05-17T06:07:52;15.40;99.90
12166;DHT22;6146;48.128;11.476;2023-05-17T06:10:18;16.00;99.90
12166;DHT22;6146;48.128;11.476;2023-05-17T06:12:43;17.00;99.90
12166;DHT22;6146;48.128;11.476;2023-05-17T06:15:09;17.30;99.30
12166;DHT22;6146;48.128;11.476;2023-05-17T06:17:35;17.70;98.80
12166;DHT22;6146;48.128;11.476;2023-05-17T06:20:01;17.90;96.70
12166;DHT22;6146;48.128;11.476;2023-05-17T06:22:26;18.30;95.80
12166;DHT22;6146;48.128;11.476;2023-05-17T06:24:52;18.10;95.30
12166;DHT22;6146;48.128;11.476;2023-05-17T06:27:17;17.70;95.10
12166;DHT22;6146;48.128;11.476;2023-05-17T06:29:43;17.20;95.30
12166;DHT22;6146;48.128;11.476;2023-05-17T06:32:08;16.60;96.40
12166;DHT22;6146;48.128;11.476;2023-05-17T06:34:34;16.40;96.70
12166;DHT22;6146;48.128;11.476;2023-05-17T06:37:00;16.40;96.60
12166;DHT22;6146;48.128;11.476;2023-05-17T06:39:25;16.70;96.50
12166;DHT22;6146;48.128;11.476;2023-05-17T06:41:51;17.10;95.60
12166;DHT22;6146;48.128;11.476;2023-05-17T06:44:17;17.60;95.50
12166;DHT22;6146;48.128;11.476;2023-05-17T06:46:42;18.60;93.90
12166;DHT22;6146;48.128;11.476;2023-05-17T06:49:08;19.60;91.30
12166;DHT22;6146;48.128;11.476;2023-05-17T06:51:33;20.60;89.00
12166;DHT22;6146;48.128;11.476;2023-05-17T06:53:59;21.20;82.70
12166;DHT22;6146;48.128;11.476;2023-05-17T06:56:25;22.20;80.10
12166;DHT22;6146;48.128;11.476;2023-05-17T06:58:50;22.70;75.90
12166;DHT22;6146;48.128;11.476;2023-05-17T07:01:16;22.80;72.30
12166;DHT22;6146;48.128;11.476;2023-05-17T07:03:42;22.70;70.60
12166;DHT22;6146;48.128;11.476;2023-05-17T07:06:07;23.00;70.10
12166;DHT22;6146;48.128;11.476;2023-05-17T07:08:33;24.00;64.80
12166;DHT22;6146;48.128;11.476;2023-05-17T07:10:58;25.10;60.10
12166;DHT22;6146;48.128;11.476;2023-05-17T07:13:24;25.60;58.80
12166;DHT22;6146;48.128;11.476;2023-05-17T07:15:49;26.30;56.20
12166;DHT22;6146;48.128;11.476;2023-05-17T07:18:15;26.40;54.10
12166;DHT22;6146;48.128;11.476;2023-05-17T07:20:41;25.70;54.90
12166;DHT22;6146;48.128;11.476;2023-05-17T07:23:06;25.10;54.90
12166;DHT22;6146;48.128;11.476;2023-05-17T07:25:32;25.10;53.60
12166;DHT22;6146;48.128;11.476;2023-05-17T07:27:58;25.40;55.00
12166;DHT22;6146;48.128;11.476;2023-05-17T07:30:23;25.30;53.30
12166;DHT22;6146;48.128;11.476;2023-05-17T07:32:49;24.90;52.40
12166;DHT22;6146;48.128;11.476;2023-05-17T07:35:14;24.00;53.90
12166;DHT22;6146;48.128;11.476;2023-05-17T07:37:40;23.90;54.80
12166;DHT22;6146;48.128;11.476;2023-05-17T07:40:06;24.90;54.10
12166;DHT22;6146;48.128;11.476;2023-05-17T07:42:32;25.30;52.50
12166;DHT22;6146;48.128;11.476;2023-05-17T07:44:57;24.00;53.80
12166;DHT22;6146;48.128;11.476;2023-05-17T07:47:23;23.00;55.20
12166;DHT22;6146;48.128;11.476;2023-05-17T07:49:49;23.20;56.70
12166;DHT22;6146;48.128;11.476;2023-05-17T07:52:14;23.50;54.90
12166;DHT22;6146;48.128;11.476;2023-05-17T07:54:40;24.00;54.20
12166;DHT22;6146;48.128;11.476;2023-05-17T07:57:06;23.70;53.90
12166;DHT22;6146;48.128;11.476;2023-05-17T07:59:31;23.50;55.20
12166;DHT22;6146;48.128;11.476;2023-05-17T08:01:57;24.40;54.10
12166;DHT22;6146;48.128;11.476;2023-05-17T08:04:23;25.30;52.60
12166;DHT22;6146;48.128;11.476;2023-05-17T08:06:49;25.50;51.30
12166;DHT22;6146;48.128;11.476;2023-05-17T08:09:15;24.80;50.30
12166;DHT22;6146;48.128;11.476;2023-05-17T08:11:44;23.90;52.20
12166;DHT22;6146;48.128;11.476;2023-05-17T08:14:14;22.70;54.40
12166;DHT22;6146;48.128;11.476;2023-05-17T08:16:41;21.80;56.90
12166;DHT22;6146;48.128;11.476;2023-05-17T08:19:09;21.10;57.60
12166;DHT22;6146;48.128;11.476;2023-05-17T08:21:40;20.40;57.60
12166;DHT22;6146;48.128;11.476;2023-05-17T08:24:07;20.20;57.30
12166;DHT22;6146;48.128;11.476;2023-05-17T08:26:33;20.30;59.90
12166;DHT22;6146;48.128;11.476;2023-05-17T08:28:59;21.40;59.30
12166;DHT22;6146;48.128;11.476;2023-05-17T08:31:25;23.20;57.10
12166;DHT22;6146;48.128;11.476;2023-05-17T08:33:51;24.40;51.90
12166;DHT22;6146;48.128;11.476;2023-05-17T08:36:16;25.10;49.60
12166;DHT22;6146;48.128;11.476;2023-05-17T08:38:42;25.00;48.30
12166;DHT22;6146;48.128;11.476;2023-05-17T08:41:08;24.20;50.70
12166;DHT22;6146;48.128;11.476;2023-05-17T08:43:34;24.30;50.50
12166;DHT22;6146;48.128;11.476;2023-05-17T08:46:00;25.30;49.90
12166;DHT22;6146;48.128;11.476;2023-05-17T08:48:28;26.70;48.40
12166;DHT22;6146;48.128;11.476;2023-05-17T08:50:56;27.00;47.40
12166;DHT22;6146;48.128;11.476;2023-05-17T08:53:24;26.60;47.50
12166;DHT22;6146;48.128;11.476;2023-05-17T08:55:54;27.30;48.50
12166;DHT22;6146;48.128;11.476;2023-05-17T08:58:25;26.60;46.10
12166;DHT22;6146;48.128;11.476;2023-05-17T09:00:52;26.80;44.50
12166;DHT22;6146;48.128;11.476;2023-05-17T09:03:18;27.30;44.80
12166;DHT22;6146;48.128;11.476;2023-05-17T09:05:49;27.00;43.20
12166;DHT22;6146;48.128;11.476;2023-05-17T09:08:14;26.70;42.90
12166;DHT22;6146;48.128;11.476;2023-05-17T09:10:40;25.50;45.20
12166;DHT22;6146;48.128;11.476;2023-05-17T09:13:07;24.80;44.40
12166;DHT22;6146;48.128;11.476;2023-05-17T09:15:32;23.50;47.10
12166;DHT22;6146;48.128;11.476;2023-05-17T09:17:59;23.00;48.30
12166;DHT22;6146;48.128;11.476;2023-05-17T09:20:26;22.40;50.00
12166;DHT22;6146;48.128;11.476;2023-05-17T09:23:00;23.10;51.20
12166;DHT22;6146;48.128;11.476;2023-05-17T09:25:28;24.40;49.50
12166;DHT22;6146;48.128;11.476;2023-05-17T09:27:54;25.20;47.00
12166;DHT22;6146;48.128;11.476;2023-05-17T09:30:28;25.60;45.90
12166;DHT22;6146;48.128;11.476;2023-05-17T09:32:54;26.00;45.20
12166;DHT22;6146;48.128;11.476;2023-05-17T09:35:29;26.50;44.70
12166;DHT22;6146;48.128;11.476;2023-05-17T09:38:06;26.00;45.50
12166;DHT22;6146;48.128;11.476;2023-05-17T09:40:36;26.80;44.10
12166;DHT22;6146;48.128;11.476;2023-05-17T09:43:02;26.70;44.70
12166;DHT22;6146;48.128;11.476;2023-05-17T09:45:30;26.00;44.20
12166;DHT22;6146;48.128;11.476;2023-05-17T09:47:56;25.40;45.40
12166;DHT22;6146;48.128;11.476;2023-05-17T09:50:22;26.30;46.90
12166;DHT22;6146;48.128;11.476;2023-05-17T09:52:47;25.80;44.50
12166;DHT22;6146;48.128;11.476;2023-05-17T09:55:13;25.20;45.40
12166;DHT22;6146;48.128;11.476;2023-05-17T09:57:40;24.20;45.90
12166;DHT22;6146;48.128;11.476;2023-05-17T10:00:07;22.80;47.30
12166;DHT22;6146;48.128;11.476;2023-05-17T10:02:39;21.80;48.80
12166;DHT22;6146;48.128;11.476;2023-05-17T10:05:09;21.40;48.30
12166;DHT22;6146;48.128;11.476;2023-05-17T10:07:37;21.40;48.70
12166;DHT22;6146;48.128;11.476;2023-05-17T10:10:03;21.60;49.70
12166;DHT22;6146;48.128;11.476;2023-05-17T10:12:31;22.00;49.80
12166;DHT22;6146;48.128;11.476;2023-05-17T10:14:59;23.00;47.70
12166;DHT22;6146;48.128;11.476;2023-05-17T10:17:28;22.60;49.30
12166;DHT22;6146;48.128;11.476;2023-05-17T10:19:55;22.30;50.70
12166;DHT22;6146;48.128;11.476;2023-05-17T10:22:21;21.40;50.20
12166;DHT22;6146;48.128;11.476;2023-05-17T10:24:48;20.80;50.80
12166;DHT22;6146;48.128;11.476;2023-05-17T10:27:15;21.60;49.90
12166;DHT22;6146;48.128;11.476;2023-05-17T10:29:41;23.00;48.10
12166;DHT22;6146;48.128;11.476;2023-05-17T10:32:08;23.60;45.70
12166;DHT22;6146;48.128;11.476;2023-05-17T10:34:38;25.20;45.70
12166;DHT22;6146;48.128;11.476;2023-05-17T10:37:04;26.30;41.80
12166;DHT22;6146;48.128;11.476;2023-05-17T10:39:32;26.00;41.50
12166;DHT22;6146;48.128;11.476;2023-05-17T10:42:01;24.80;42.80
12166;DHT22;6146;48.128;11.476;2023-05-17T10:44:31;24.60;44.40
12166;DHT22;6146;48.128;11.476;2023-05-17T10:46:58;25.10;44.80
12166;DHT22;6146;48.128;11.476;2023-05-17T10:49:26;24.60;47.10
12166;DHT22;6146;48.128;11.476;2023-05-17T10:51:54;24.10;47.00
12166;DHT22;6146;48.128;11.476;2023-05-17T10:54:33;22.90;47.60
12166;DHT22;6146;48.128;11.476;2023-05-17T10:57:04;21.80;48.10
12166;DHT22;6146;48.128;11.476;2023-05-17T10:59:31;21.10;49.50
12166;DHT22;6146;48.128;11.476;2023-05-17T11:01:59;20.70;51.00
12166;DHT22;6146;48.128;11.476;2023-05-17T11:04:31;20.70;50.00
12166;DHT22;6146;48.128;11.476;2023-05-17T11:09:47;21.60;49.10
12166;DHT22;6146;48.128;11.476;2023-05-17T11:12:14;21.70;48.10
12166;DHT22;6146;48.128;11.476;2023-05-17T11:14:46;21.20;48.80
12166;DHT22;6146;48.128;11.476;2023-05-17T11:17:25;20.70;50.60
12166;DHT22;6146;48.128;11.476;2023-05-17T11:22:17;20.60;49.10
12166;DHT22;6146;48.128;11.476;2023-05-17T11:24:43;22.00;46.80
12166;DHT22;6146;48.128;11.476;2023-05-17T11:27:13;23.50;45.00
12166;DHT22;6146;48.128;11.476;2023-05-17T11:29:40;25.00;42.60
12166;DHT22;6146;48.128;11.476;2023-05-17T11:32:10;25.70;41.80
12166;DHT22;6146;48.128;11.476;2023-05-17T11:34:35;24.90;43.00
12166;DHT22;6146;48.128;11.476;2023-05-17T11:37:02;23.70;44.50
12166;DHT22;6146;48.128;11.476;2023-05-17T11:39:29;22.40;46.00
12166;DHT22;6146;48.128;11.476;2023-05-17T11:41:56;22.30;49.00
12166;DHT22;6146;48.128;11.476;2023-05-17T11:44:29;22.80;50.20
12166;DHT22;6146;48.128;11.476;2023-05-17T11:47:02;23.20;48.70
12166;DHT22;6146;48.128;11.476;2023-05-17T11:49:29;23.00;49.80
12166;DHT22;6146;48.128;11.476;2023-05-17T11:51:56;22.50;49.60
12166;DHT22;6146;48.128;11.476;2023-05-17T11:54:24;22.20;50.20
12166;DHT22;6146;48.128;11.476;2023-05-17T11:56:52;22.80;50.50
12166;DHT22;6146;48.128;11.476;2023-05-17T11:59:21;23.20;49.20
12166;DHT22;6146;48.128;11.476;2023-05-17T12:01:49;23.50;48.10
12166;DHT22;6146;48.128;11.476;2023-05-17T12:04:26;22.80;49.80
12166;DHT22;6146;48.128;11.476;2023-05-17T12:06:52;22.40;50.50
12166;DHT22;6146;48.128;11.476;2023-05-17T12:09:18;22.00;50.70
12166;DHT22;6146;48.128;11.476;2023-05-17T12:11:45;21.30;52.20
12166;DHT22;6146;48.128;11.476;2023-05-17T12:14:18;20.70;52.90
12166;DHT22;6146;48.128;11.476;2023-05-17T12:16:50;20.00;53.90
12166;DHT22;6146;48.128;11.476;2023-05-17T12:19:21;19.30;56.30
12166;DHT22;6146;48.128;11.476;2023-05-17T12:21:48;18.80;56.40
12166;DHT22;6146;48.128;11.476;2023-05-17T12:24:14;18.40;57.50
12166;DHT22;6146;48.128;11.476;2023-05-17T12:26:44;17.90;58.50
12166;DHT22;6146;48.128;11.476;2023-05-17T12:29:10;17.90;59.50
12166;DHT22;6146;48.128;11.476;2023-05-17T12:31:43;17.50;61.30
12166;DHT22;6146;48.128;11.476;2023-05-17T12:34:10;17.30;62.90
12166;DHT22;6146;48.128;11.476;2023-05-17T12:36:41;17.30;62.30
12166;DHT22;6146;48.128;11.476;2023-05-17T12:39:08;17.00;62.10
12166;DHT22;6146;48.128;11.476;2023-05-17T12:41:35;17.00;65.00
12166;DHT22;6146;48.128;11.476;2023-05-17T12:44:03;17.20;61.80
12166;DHT22;6146;48.128;11.476;2023-05-17T12:46:29;17.40;62.10
12166;DHT22;6146;48.128;11.476;2023-05-17T12:49:00;17.50;60.80
12166;DHT22;6146;48.128;11.476;2023-05-17T12:51:29;17.60;61.20
12166;DHT22;6146;48.128;11.476;2023-05-17T12:54:03;17.50;61.00
12166;DHT22;6146;48.128;11.476;2023-05-17T12:56:29;17.20;60.10
12166;DHT22;6146;48.128;11.476;2023-05-17T12:59:11;17.20;58.30
12166;DHT22;6146;48.128;11.476;2023-05-17T13:01:47;17.00;58.00
12166;DHT22;6146;48.128;11.476;2023-05-17T13:04:14;17.30;57.60
12166;DHT22;6146;48.128;11.476;2023-05-17T13:06:44;17.60;57.60
12166;DHT22;6146;48.128;11.476;2023-05-17T13:09:10;17.80;59.50
12166;DHT22;6146;48.128;11.476;2023-05-17T13:11:35;18.40;58.00
12166;DHT22;6146;48.128;11.476;2023-05-17T13:14:06;18.70;55.20
12166;DHT22;6146;48.128;11.476;2023-05-17T13:16:32;18.50;56.40
12166;DHT22;6146;48.128;11.476;2023-05-17T13:18:58;18.00;56.60
12166;DHT22;6146;48.128;11.476;2023-05-17T13:21:24;17.70;57.90
12166;DHT22;6146;48.128;11.476;2023-05-17T13:23:49;17.50;58.00
12166;DHT22;6146;48.128;11.476;2023-05-17T13:26:16;17.20;58.20
12166;DHT22;6146;48.128;11.476;2023-05-17T13:28:42;16.90;57.70
12166;DHT22;6146;48.128;11.476;2023-05-17T13:31:08;17.20;57.60
12166;DHT22;6146;48.128;11.476;2023-05-17T13:33:34;17.50;57.00
12166;DHT22;6146;48.128;11.476;2023-05-17T13:35:59;17.80;57.20
12166;DHT22;6146;48.128;11.476;2023-05-17T13:38:25;17.50;54.80
12166;DHT22;6146;48.128;11.476;2023-05-17T13:40:51;16.90;55.60
12166;DHT22;6146;48.128;11.476;2023-05-17T13:43:16;16.70;57.10
12166;DHT22;6146;48.128;11.476;2023-05-17T13:45:42;16.80;60.50
12166;DHT22;6146;48.128;11.476;2023-05-17T13:48:07;17.00;59.80
12166;DHT22;6146;48.128;11.476;2023-05-17T13:50:33;17.30;59.90
12166;DHT22;6146;48.128;11.476;2023-05-17T13:52:59;17.30;58.90
12166;DHT22;6146;48.128;11.476;2023-05-17T13:55:26;17.30;57.70
12166;DHT22;6146;48.128;11.476;2023-05-17T13:57:52;17.30;58.60
12166;DHT22;6146;48.128;11.476;2023-05-17T14:00:18;17.20;60.10
12166;DHT22;6146;48.128;11.476;2023-05-17T14:02:44;17.10;62.10
12166;DHT22;6146;48.128;11.476;2023-05-17T14:05:09;17.00;62.30
12166;DHT22;6146;48.128;11.476;2023-05-17T14:07:35;17.10;63.60
12166;DHT22;6146;48.128;11.476;2023-05-17T14:10:07;17.10;62.60
12166;DHT22;6146;48.128;11.476;2023-05-17T14:12:33;17.40;61.00
12166;DHT22;6146;48.128;11.476;2023-05-17T14:14:58;17.80;60.50
12166;DHT22;6146;48.128;11.476;2023-05-17T14:17:24;18.10;59.10
12166;DHT22;6146;48.128;11.476;2023-05-17T14:19:50;18.30;58.70
12166;DHT22;6146;48.128;11.476;2023-05-17T14:22:15;18.40;56.10
12166;DHT22;6146;48.128;11.476;2023-05-17T14:24:41;18.30;54.30
12166;DHT22;6146;48.128;11.476;2023-05-17T14:27:06;18.50;57.00
12166;DHT22;6146;48.128;11.476;2023-05-17T14:29:32;18.60;57.90
12166;DHT22;6146;48.128;11.476;2023-05-17T14:31:57;18.40;57.10
12166;DHT22;6146;48.128;11.476;2023-05-17T14:34:23;18.30;57.80
12166;DHT22;6146;48.128;11.476;2023-05-17T14:36:48;18.00;59.70
12166;DHT22;6146;48.128;11.476;2023-05-17T14:39:15;17.60;59.70
12166;DHT22;6146;48.128;11.476;2023-05-17T14:41:41;17.20;62.00
12166;DHT22;6146;48.128;11.476;2023-05-17T14:44:07;17.10;63.20
12166;DHT22;6146;48.128;11.476;2023-05-17T14:46:32;16.90;65.20
12166;DHT22;6146;48.128;11.476;2023-05-17T14:48:58;16.70;63.80
12166;DHT22;6146;48.128;11.476;2023-05-17T14:51:24;16.90;64.40
12166;DHT22;6146;48.128;11.476;2023-05-17T14:53:49;17.10;65.80
12166;DHT22;6146;48.128;11.476;2023-05-17T14:56:15;17.20;62.70
12166;DHT22;6146;48.128;11.476;2023-05-17T14:58:42;17.60;62.90
12166;DHT22;6146;48.128;11.476;2023-05-17T15:01:07;17.60;61.50
12166;DHT22;6146;48.128;11.476;2023-05-17T15:03:33;17.40;62.20
12166;DHT22;6146;48.128;11.476;2023-05-17T15:06:00;17.20;62.10
12166;DHT22;6146;48.128;11.476;2023-05-17T15:08:26;16.80;61.10
12166;DHT22;6146;48.128;11.476;2023-05-17T15:10:51;16.50;65.30
12166;DHT22;6146;48.128;11.476;2023-05-17T15:13:18;16.50;64.90
12166;DHT22;6146;48.128;11.476;2023-05-17T15:15:44;16.70;63.10
12166;DHT22;6146;48.128;11.476;2023-05-17T15:18:11;16.80;62.00
12166;DHT22;6146;48.128;11.476;2023-05-17T15:20:38;16.60;64.50
12166;DHT22;6146;48.128;11.476;2023-05-17T15:23:04;16.50;67.80
12166;DHT22;6146;48.128;11.476;2023-05-17T15:25:30;16.20;67.80
12166;DHT22;6146;48.128;11.476;2023-05-17T15:27:55;15.80;66.80
12166;DHT22;6146;48.128;11.476;2023-05-17T15:30:21;15.30;70.00
12166;DHT22;6146;48.128;11.476;2023-05-17T15:32:54;15.20;71.90
12166;DHT22;6146;48.128;11.476;2023-05-17T15:35:20;15.10;72.60
12166;DHT22;6146;48.128;11.476;2023-05-17T15:37:46;15.20;71.60
12166;DHT22;6146;48.128;11.476;2023-05-17T15:40:12;15.20;71.40
12166;DHT22;6146;48.128;11.476;2023-05-17T15:42:38;15.20;71.60
12166;DHT22;6146;48.128;11.476;2023-05-17T15:45:05;15.20;70.80
12166;DHT22;6146;48.128;11.476;2023-05-17T15:47:30;15.10;68.70
12166;DHT22;6146;48.128;11.476;2023-05-17T15:49:57;15.00;70.50